»·PEaware :: AAL115 KPDX-KBOI

AAL115 :: KPDX-KBOI

FLIGHT INFORMATION

Flight Status: Arrived
Operator:
American Airlines
More flights by this operator :: More flights under this callsign
Pilot: Sergei F. (8485)
Aircraft: BOEING 737-300
(B733)
More flights by this aircraft type
Origin: KPDX Portland Intl
United States
Destination: KBOI Boise Air Terminal/Gowen
United States
More flights between these airports :: More routes between these airports
Route: WHAMY4 IMB HOSTS PARMO3
File this flight plan on PilotEdge
Remarks:
Altitude:
(Current/Filed)
350ft
Speed:
(Current/Filed)
300kts
Departed: 22-Dec-17 07:13 PM
Arrived: 22-Dec-17 07:59 PM
Distance/Time
Traveled:
298nm/0:45
Distance/Time
To Go:
Arrived

Flight Plot

Page will automatically refresh every two minutes.

Flight plan parsing failed; only flown route is shown


Map Options




Map Legend


Flown Route
Filed Route
Departure Airport
Arrival Airport
Navaid (VOR, NDB)
Fix

Horizontal Profiles

Position Reports

Time Latitude Longitude Heading Altitude Ground
Speed
22-Dec-17 18:53 45.589442 -122.596388 209 23ft 0kts
22-Dec-17 18:54 45.589442 -122.596388 209 23ft 0kts
22-Dec-17 18:55 45.589442 -122.596388 209 23ft 0kts
22-Dec-17 18:56 45.589442 -122.596388 209 23ft 0kts
22-Dec-17 18:57 45.589442 -122.596388 209 23ft 0kts
22-Dec-17 18:58 45.589442 -122.596388 209 23ft 0kts
22-Dec-17 18:59 45.589442 -122.596388 209 23ft 0kts
22-Dec-17 19:00 45.589442 -122.596388 209 23ft 0kts
22-Dec-17 19:01 45.589442 -122.596388 209 23ft 0kts
22-Dec-17 19:02 45.589442 -122.596388 209 23ft 0kts
22-Dec-17 19:03 45.589442 -122.596388 209 23ft 0kts
22-Dec-17 19:04 45.589442 -122.596388 209 23ft 0kts
22-Dec-17 19:05 45.589442 -122.596388 209 23ft 0kts
22-Dec-17 19:06 45.589900 -122.596011 209 23ft 0kts
22-Dec-17 19:07 45.590040 -122.595898 299 24ft 0kts
22-Dec-17 19:08 45.590040 -122.595898 299 24ft 0kts
22-Dec-17 19:09 45.590040 -122.595898 299 24ft 0kts
22-Dec-17 19:10 45.590346 -122.596673 299 23ft 7kts
22-Dec-17 19:11 45.590777 -122.597774 298 24ft 0kts
22-Dec-17 19:12 45.590777 -122.597774 298 24ft 0kts
22-Dec-17 19:13 45.590777 -122.597774 298 24ft 0kts
22-Dec-17 19:14 45.590777 -122.597774 298 24ft 0kts
22-Dec-17 19:15 45.591244 -122.598694 314 23ft 9kts
22-Dec-17 19:16 45.592910 -122.599693 42 26ft 7kts
22-Dec-17 19:17 45.594528 -122.597389 44 27ft 9kts
22-Dec-17 19:18 45.594645 -122.595263 118 27ft 0kts
22-Dec-17 19:19 45.586469 -122.574393 116 570ft 155kts
22-Dec-17 19:20 45.575829 -122.520593 100 3236ft 159kts
22-Dec-17 19:21 45.563855 -122.449827 100 5360ft 216kts
22-Dec-17 19:22 45.546339 -122.353868 100 7554ft 278kts
22-Dec-17 19:23 45.489229 -122.276118 144 10526ft 321kts
22-Dec-17 19:24 45.417970 -122.185775 142 13451ft 360kts
22-Dec-17 19:25 45.341169 -122.088090 143 16553ft 387kts
22-Dec-17 19:26 45.259008 -121.982138 134 19361ft 419kts
22-Dec-17 19:27 45.214397 -121.822832 111 21800ft 453kts
22-Dec-17 19:28 45.170308 -121.650362 111 24069ft 479kts
22-Dec-17 19:29 45.123772 -121.470266 111 26176ft 501kts
22-Dec-17 19:30 45.075362 -121.284231 111 28106ft 521kts
22-Dec-17 19:31 45.026052 -121.096262 111 30112ft 531kts
22-Dec-17 19:32 44.974910 -120.902968 110 32162ft 535kts
22-Dec-17 19:33 44.923333 -120.709635 110 34099ft 537kts
22-Dec-17 19:34 44.872164 -120.520293 110 35268ft 531kts
22-Dec-17 19:35 44.822003 -120.335464 111 35195ft 520kts
22-Dec-17 19:36 44.770266 -120.145751 111 35213ft 522kts
22-Dec-17 19:37 44.718104 -119.956311 111 35203ft 521kts
22-Dec-17 19:38 44.665862 -119.767996 111 35205ft 521kts
22-Dec-17 19:39 44.610322 -119.580919 112 35204ft 520kts
22-Dec-17 19:40 44.555846 -119.394409 112 35203ft 520kts
22-Dec-17 19:41 44.501655 -119.209902 113 35203ft 520kts
22-Dec-17 19:42 44.447046 -119.025917 113 35204ft 520kts
22-Dec-17 19:43 44.391319 -118.839688 112 35205ft 527kts
22-Dec-17 19:44 44.334323 -118.650430 112 35207ft 529kts
22-Dec-17 19:45 44.277306 -118.462487 112 35203ft 528kts
22-Dec-17 19:46 44.220920 -118.277784 113 32949ft 549kts
22-Dec-17 19:47 44.160685 -118.082103 112 29451ft 549kts
22-Dec-17 19:48 44.103185 -117.896681 112 27620ft 503kts
22-Dec-17 19:49 44.048954 -117.723026 112 24528ft 487kts
22-Dec-17 19:50 43.995739 -117.553767 112 21421ft 464kts
22-Dec-17 19:51 43.945473 -117.398581 112 19337ft 424kts
22-Dec-17 19:52 43.900413 -117.256461 113 17235ft 394kts
22-Dec-17 19:53 43.857570 -117.122872 113 15129ft 369kts
22-Dec-17 19:54 43.817084 -116.997696 114 13049ft 348kts
22-Dec-17 19:55 43.779735 -116.882842 115 11424ft 316kts
22-Dec-17 19:56 43.744782 -116.774794 116 9528ft 299kts
22-Dec-17 19:57 43.712657 -116.674448 117 8053ft 269kts
22-Dec-17 19:58 43.684193 -116.585790 117 6843ft 242kts
22-Dec-17 19:59 43.657125 -116.504618 111 5658ft 224kts
22-Dec-17 20:00 43.633611 -116.429873 111 4975ft 204kts
22-Dec-17 20:01 43.611455 -116.364276 112 4380ft 164kts
22-Dec-17 20:02 43.593086 -116.310205 112 3929ft 148kts
22-Dec-17 20:03 43.577128 -116.263241 113 3183ft 126kts
22-Dec-17 20:04 43.564815 -116.227152 114 2844ft 44kts
22-Dec-17 20:05 43.565586 -116.223690 4 2848ft 14kts
22-Dec-17 20:06 43.566349 -116.221739 97 2851ft 6kts
22-Dec-17 20:07 43.567326 -116.220819 24 2850ft 0kts
22-Dec-17 20:08 43.567326 -116.220819 24 2850ft 0kts
22-Dec-17 20:09 43.567325 -116.220819 24 2850ft 0kts
22-Dec-17 20:10 43.567325 -116.220819 24 2850ft 0kts
22-Dec-17 20:11 43.567325 -116.220819 24 2850ft 0kts
22-Dec-17 20:12 43.567325 -116.220819 24 2850ft 0kts
22-Dec-17 20:13 43.567325 -116.220819 24 2850ft 0kts
22-Dec-17 20:14 43.567325 -116.220819 24 2850ft 0kts
22-Dec-17 20:15 43.567325 -116.220819 24 2850ft 0kts
22-Dec-17 20:16 43.567325 -116.220819 24 2850ft 0kts
22-Dec-17 20:17 43.567325 -116.220819 24 2850ft 0kts
22-Dec-17 20:18 43.567325 -116.220819 24 2850ft 0kts
22-Dec-17 20:19 43.567325 -116.220819 24 2850ft 0kts

Navigation Log

Ident Type
Flight plan parsing failed, navigation log unavailable